createdAt,value
2018-04-24T00:00:20.933Z,99144.84
2018-04-24T00:02:54.435Z,99144.02
2018-04-24T00:05:28.130Z,99144.82
2018-04-24T00:08:01.876Z,99144.92
2018-04-24T00:10:35.520Z,99145.78
2018-04-24T00:13:09.042Z,99139.94
2018-04-24T00:15:42.604Z,99143.84
2018-04-24T00:18:16.151Z,99132.70
2018-04-24T00:20:49.670Z,99138.45
2018-04-24T00:23:23.389Z,99136.78
2018-04-24T00:25:57.090Z,99135.84
2018-04-24T00:28:30.851Z,99141.41
2018-04-24T00:31:04.624Z,99144.75
2018-04-24T00:33:38.576Z,99143.17
2018-04-24T00:36:12.389Z,99133.20
2018-04-24T00:38:46.187Z,99124.35
2018-04-24T00:41:19.699Z,99122.25
2018-04-24T00:43:53.271Z,99123.55
2018-04-24T00:46:26.957Z,99117.36
2018-04-24T00:49:00.611Z,99117.53
2018-04-24T00:51:34.237Z,99114.92
2018-04-24T00:54:07.874Z,99114.09
2018-04-24T00:56:41.664Z,99111.59
2018-04-24T00:59:16.017Z,99106.98
2018-04-24T01:01:49.807Z,99104.69
2018-04-24T01:04:23.524Z,99110.20
2018-04-24T01:06:57.056Z,99101.05
2018-04-24T01:09:30.950Z,99114.34
2018-04-24T01:12:04.688Z,99108.05
2018-04-24T01:14:38.292Z,99111.41
2018-04-24T01:17:11.847Z,99115.43
2018-04-24T01:19:45.360Z,99118.45
2018-04-24T01:22:19.391Z,99119.69
2018-04-24T01:24:52.943Z,99115.33
2018-04-24T01:27:26.691Z,99117.16
2018-04-24T01:30:00.225Z,99116.02
2018-04-24T01:32:34.012Z,99114.67
2018-04-24T01:35:07.614Z,99128.58
2018-04-24T01:37:41.300Z,99132.04
2018-04-24T01:40:14.937Z,99135.11
2018-04-24T01:42:48.707Z,99134.04
2018-04-24T01:45:22.218Z,99120.37
2018-04-24T01:47:55.796Z,99129.17
2018-04-24T01:50:29.344Z,99112.08
2018-04-24T01:53:02.948Z,99120.38
2018-04-24T01:55:36.727Z,99109.52
2018-04-24T01:58:10.376Z,99094.60
2018-04-24T02:00:44.040Z,99100.57
2018-04-24T02:03:17.663Z,99115.76
2018-04-24T02:05:51.244Z,99107.77
2018-04-24T02:08:24.796Z,99115.59
2018-04-24T02:10:58.304Z,99121.89
2018-04-24T02:13:31.875Z,99109.34
2018-04-24T02:16:05.535Z,99117.70
2018-04-24T02:18:39.180Z,99107.88
2018-04-24T02:21:12.947Z,99114.49
2018-04-24T02:23:46.543Z,99111.18
2018-04-24T02:26:20.072Z,99110.82
2018-04-24T02:28:53.667Z,99116.00
2018-04-24T02:31:27.336Z,99112.27
2018-04-24T02:34:01.452Z,99111.38
2018-04-24T02:36:35.096Z,99115.28
2018-04-24T02:39:08.734Z,99124.48
2018-04-24T02:41:42.244Z,99115.58
2018-04-24T02:44:15.908Z,99105.38
2018-04-24T02:46:49.555Z,99105.69
2018-04-24T02:49:23.409Z,99098.95
2018-04-24T02:51:56.997Z,99092.56
2018-04-24T02:54:30.617Z,99089.59
2018-04-24T02:57:04.277Z,99083.16
2018-04-24T02:59:37.795Z,99080.63
2018-04-24T03:02:11.431Z,99080.08
2018-04-24T03:04:45.199Z,99079.98
2018-04-24T03:07:18.986Z,99075.36
2018-04-24T03:09:52.592Z,99072.97
2018-04-24T03:12:26.219Z,99072.67
2018-04-24T03:14:59.792Z,99091.44
2018-04-24T03:17:33.443Z,99096.23
2018-04-24T03:20:07.078Z,99092.20
2018-04-24T03:22:40.638Z,99092.61
2018-04-24T03:25:14.155Z,99094.81
2018-04-24T03:27:47.692Z,99091.50
2018-04-24T03:30:21.416Z,99079.55
2018-04-24T03:32:54.944Z,99084.20
2018-04-24T03:35:28.495Z,99076.93
2018-04-24T03:38:02.111Z,99081.19
2018-04-24T03:40:35.704Z,99073.36
2018-04-24T03:43:09.296Z,99077.69
2018-04-24T03:45:42.813Z,99078.39
2018-04-24T03:48:16.439Z,99075.88
2018-04-24T03:50:50.096Z,99069.58
2018-04-24T03:53:23.764Z,99071.51
2018-04-24T03:55:57.280Z,99069.19
2018-04-24T03:58:30.979Z,99073.66
2018-04-24T04:01:04.632Z,99075.02
2018-04-24T04:03:38.265Z,99072.31
2018-04-24T04:06:11.871Z,99062.28
2018-04-24T04:08:45.470Z,99060.30
2018-04-24T04:11:19.028Z,99054.03
2018-04-24T04:13:52.656Z,99055.94
2018-04-24T04:16:26.307Z,99062.27
2018-04-24T04:19:11.784Z,99071.50
2018-04-24T04:21:57.376Z,99069.09
2018-04-24T04:27:25.720Z,99054.28
2018-04-24T04:29:59.422Z,99049.61
2018-04-24T04:32:33.084Z,99046.25
2018-04-24T04:35:06.803Z,99055.59
2018-04-24T04:37:40.429Z,99049.36
2018-04-24T04:40:13.983Z,99063.47
2018-04-24T04:42:47.732Z,99053.68
2018-04-24T04:45:21.357Z,99049.56
2018-04-24T04:47:55.040Z,99065.17
2018-04-24T04:50:28.611Z,99069.00
2018-04-24T04:53:02.656Z,99071.45
2018-04-24T04:55:36.215Z,99066.97
2018-04-24T04:58:09.823Z,99074.47
2018-04-24T05:00:43.421Z,99081.44
2018-04-24T05:03:17.033Z,99081.66
2018-04-24T05:05:50.724Z,99096.94
2018-04-24T05:08:24.455Z,99107.89
2018-04-24T05:10:58.145Z,99114.80
2018-04-24T05:13:31.788Z,99117.82
2018-04-24T05:16:05.436Z,99118.38
2018-04-24T05:18:38.941Z,99115.04
2018-04-24T05:21:12.684Z,99118.32
2018-04-24T05:23:46.245Z,99118.20
2018-04-24T05:26:19.807Z,99120.31
2018-04-24T05:28:53.416Z,99121.93
2018-04-24T05:31:27.043Z,99115.03
2018-04-24T05:34:00.624Z,99114.88
2018-04-24T05:36:34.291Z,99109.30
2018-04-24T05:39:07.990Z,99123.97
2018-04-24T05:41:41.520Z,99120.25
2018-04-24T05:44:15.151Z,99123.16
2018-04-24T05:46:48.845Z,99115.61
2018-04-24T05:49:22.431Z,99129.77
2018-04-24T05:51:56.023Z,99136.09
2018-04-24T05:54:29.588Z,99128.37
2018-04-24T05:57:03.113Z,99131.88
2018-04-24T05:59:36.915Z,99142.56
2018-04-24T06:02:10.455Z,99140.08
2018-04-24T06:04:44.240Z,99141.67
2018-04-24T06:07:17.920Z,99144.68
2018-04-24T06:09:51.519Z,99141.67
2018-04-24T06:12:25.068Z,99132.75
2018-04-24T06:14:58.755Z,99131.73
2018-04-24T06:17:32.439Z,99126.86
2018-04-24T06:20:06.152Z,99131.19
2018-04-24T06:22:39.844Z,99131.12
2018-04-24T06:25:13.476Z,99140.77
2018-04-24T06:27:47.020Z,99124.57
2018-04-24T06:30:20.605Z,99119.36
2018-04-24T06:32:54.155Z,99120.22
2018-04-24T06:35:27.968Z,99130.83
2018-04-24T06:38:01.753Z,99128.33
2018-04-24T06:40:35.387Z,99127.81
2018-04-24T06:43:09.148Z,99119.14
2018-04-24T06:45:42.712Z,99126.30
2018-04-24T06:48:16.313Z,99119.68
2018-04-24T06:50:49.936Z,99120.70
2018-04-24T06:53:23.666Z,99118.33
2018-04-24T06:55:57.428Z,99116.63
2018-04-24T06:58:31.040Z,99111.67
2018-04-24T07:01:04.795Z,99116.28
2018-04-24T07:03:38.605Z,99122.61
2018-04-24T07:06:12.128Z,99122.30
2018-04-24T07:08:45.776Z,99123.98
2018-04-24T07:11:19.614Z,99118.89
2018-04-24T07:13:53.076Z,99123.76
2018-04-24T07:16:26.687Z,99120.62
2018-04-24T07:19:00.275Z,99117.73
2018-04-24T07:21:33.811Z,99122.13
2018-04-24T07:24:07.365Z,99120.32
2018-04-24T07:26:41.107Z,99120.59
2018-04-24T07:29:14.712Z,99122.15
2018-04-24T07:31:48.568Z,99111.47
2018-04-24T07:34:22.083Z,99115.49
2018-04-24T07:36:55.776Z,99120.05
2018-04-24T07:39:29.439Z,99130.97
2018-04-24T07:42:03.048Z,99125.24
2018-04-24T07:44:36.596Z,99125.58
2018-04-24T07:47:10.333Z,99132.16
2018-04-24T07:49:43.923Z,99137.77
2018-04-24T07:52:17.983Z,99134.25
2018-04-24T07:54:51.551Z,99142.02
2018-04-24T07:57:25.262Z,99145.47
2018-04-24T07:59:58.928Z,99140.73
2018-04-24T08:02:32.640Z,99141.13
2018-04-24T08:05:06.187Z,99144.69
2018-04-24T08:07:39.896Z,99142.40
2018-04-24T08:10:13.512Z,99137.88
2018-04-24T08:12:47.244Z,99143.33
2018-04-24T08:15:20.806Z,99136.78
2018-04-24T08:17:54.457Z,99141.28
2018-04-24T08:20:27.992Z,99135.11
2018-04-24T08:23:01.828Z,99130.39
2018-04-24T08:25:35.484Z,99141.44
2018-04-24T08:28:09.289Z,99149.44
2018-04-24T08:30:42.920Z,99135.13
2018-04-24T08:33:16.484Z,99137.08
2018-04-24T08:35:50.180Z,99146.33
2018-04-24T08:38:23.965Z,99150.84
2018-04-24T08:40:57.475Z,99151.09
2018-04-24T08:43:31.088Z,99151.70
2018-04-24T08:46:04.639Z,99156.41
2018-04-24T08:48:38.244Z,99165.92
2018-04-24T08:51:11.784Z,99159.95
2018-04-24T08:53:45.527Z,99155.59
2018-04-24T08:56:19.046Z,99158.12
2018-04-24T08:58:52.609Z,99163.09
2018-04-24T09:01:26.267Z,99159.19
2018-04-24T09:03:59.804Z,99172.77
2018-04-24T09:06:33.399Z,99174.43
2018-04-24T09:09:07.177Z,99168.52
2018-04-24T09:11:40.760Z,99167.86
2018-04-24T09:14:14.288Z,99165.40
2018-04-24T09:16:47.907Z,99180.91
2018-04-24T09:19:21.566Z,99183.63
2018-04-24T09:21:55.196Z,99177.75
2018-04-24T09:24:28.856Z,99179.56
2018-04-24T09:27:02.730Z,99177.32
2018-04-24T09:29:36.308Z,99173.52
2018-04-24T09:32:09.976Z,99184.97
2018-04-24T09:34:43.640Z,99188.16
2018-04-24T09:37:17.367Z,99182.89
2018-04-24T09:39:51.044Z,99191.85
2018-04-24T09:42:24.860Z,99180.50
2018-04-24T09:44:58.384Z,99182.45
2018-04-24T09:47:31.961Z,99177.28
2018-04-24T09:50:05.523Z,99169.28
2018-04-24T09:52:39.296Z,99162.92
2018-04-24T09:55:12.783Z,99156.86
2018-04-24T09:57:46.460Z,99167.91
2018-04-24T10:00:25.524Z,99168.14
2018-04-24T10:02:59.104Z,99172.30
2018-04-24T10:05:32.708Z,99186.36
2018-04-24T10:08:06.496Z,99186.30
2018-04-24T10:10:40.015Z,99184.29
2018-04-24T10:13:13.747Z,99185.23
2018-04-24T10:15:47.436Z,99179.63
2018-04-24T10:18:21.052Z,99179.46
2018-04-24T10:20:54.729Z,99174.69
2018-04-24T10:23:28.332Z,99174.61
2018-04-24T10:26:01.972Z,99179.16
2018-04-24T10:28:35.636Z,99172.19
2018-04-24T10:31:09.201Z,99176.32
2018-04-24T10:33:42.983Z,99173.91
2018-04-24T10:36:16.553Z,99169.77
2018-04-24T10:38:50.317Z,99168.43
2018-04-24T10:41:23.953Z,99154.09
2018-04-24T10:43:57.739Z,99148.10
2018-04-24T10:46:31.465Z,99139.14
2018-04-24T10:49:05.000Z,99135.62
2018-04-24T10:51:38.654Z,99131.21
2018-04-24T10:54:12.144Z,99129.51
2018-04-24T10:56:45.667Z,99140.11
2018-04-24T10:59:19.474Z,99133.86
2018-04-24T11:01:53.100Z,99140.19
2018-04-24T11:04:26.631Z,99125.58
2018-04-24T11:07:00.224Z,99131.03
2018-04-24T11:09:33.790Z,99128.72
2018-04-24T11:12:07.303Z,99121.57
2018-04-24T11:14:41.007Z,99124.06
2018-04-24T11:17:14.586Z,99117.87
2018-04-24T11:19:48.228Z,99117.94
2018-04-24T11:22:22.139Z,99109.95
2018-04-24T11:24:55.657Z,99113.75
2018-04-24T11:27:29.188Z,99113.66
2018-04-24T11:30:03.044Z,99112.98
2018-04-24T11:32:36.834Z,99108.44
2018-04-24T11:35:10.504Z,99100.98
2018-04-24T11:37:44.081Z,99120.57
2018-04-24T11:40:17.744Z,99117.63
2018-04-24T11:42:51.530Z,99120.30
2018-04-24T11:45:25.063Z,99119.27
2018-04-24T11:47:58.636Z,99118.38
2018-04-24T11:50:32.173Z,99127.10
2018-04-24T11:53:05.955Z,99125.86
2018-04-24T11:55:39.883Z,99129.77
2018-04-24T11:58:13.412Z,99132.63
2018-04-24T12:00:46.948Z,99139.76
2018-04-24T12:03:20.496Z,99136.25
2018-04-24T12:05:54.031Z,99136.33
2018-04-24T12:08:27.599Z,99136.16
2018-04-24T12:11:01.083Z,99133.94
2018-04-24T12:13:34.756Z,99133.99
2018-04-24T12:16:08.404Z,99126.98
2018-04-24T12:18:41.928Z,99118.69
2018-04-24T12:21:15.488Z,99113.35
2018-04-24T12:23:49.156Z,99116.87
2018-04-24T12:26:22.687Z,99119.16
2018-04-24T12:28:56.331Z,99114.30
2018-04-24T12:31:29.893Z,99118.52
2018-04-24T12:34:03.592Z,99123.56
2018-04-24T12:36:37.244Z,99118.22
2018-04-24T12:39:10.876Z,99117.48
2018-04-24T12:41:44.723Z,99108.61
2018-04-24T12:44:18.220Z,99110.42
2018-04-24T12:46:51.788Z,99107.33
2018-04-24T12:49:25.323Z,99101.76
2018-04-24T12:51:59.107Z,99100.45
2018-04-24T12:54:32.755Z,99097.80
2018-04-24T12:57:06.336Z,99097.80
2018-04-24T12:59:39.939Z,99095.36
2018-04-24T13:02:13.592Z,99093.64
2018-04-24T13:04:47.325Z,99091.27
2018-04-24T13:07:20.992Z,99094.19
2018-04-24T13:09:54.635Z,99094.87
2018-04-24T13:12:28.507Z,99090.36
2018-04-24T13:15:02.090Z,99089.55
2018-04-24T13:17:35.852Z,99087.22
2018-04-24T13:20:09.441Z,99080.27
2018-04-24T13:22:43.243Z,99086.39
2018-04-24T13:25:17.008Z,99063.41
2018-04-24T13:27:50.572Z,99072.41
2018-04-24T13:30:24.188Z,99061.07
2018-04-24T13:32:57.828Z,99052.28
2018-04-24T13:35:31.406Z,99051.56
2018-04-24T13:38:05.040Z,99045.39
2018-04-24T13:40:38.620Z,99056.64
2018-04-24T13:43:12.226Z,99062.38
2018-04-24T13:45:45.723Z,99052.47
2018-04-24T13:48:19.488Z,99047.80
2018-04-24T13:50:53.072Z,99044.70
2018-04-24T13:53:26.791Z,99032.72
2018-04-24T13:56:00.518Z,99024.87
2018-04-24T13:58:34.332Z,99024.61
2018-04-24T14:01:07.856Z,99024.27
2018-04-24T14:03:41.468Z,99022.77
2018-04-24T14:06:15.064Z,99016.72
2018-04-24T14:08:48.735Z,99010.59
2018-04-24T14:11:22.386Z,99010.66
2018-04-24T14:13:55.980Z,99003.91
2018-04-24T14:16:29.716Z,99005.09
2018-04-24T14:19:03.260Z,98998.44
2018-04-24T14:21:36.964Z,99001.86
2018-04-24T14:24:10.468Z,99005.09
2018-04-24T14:26:44.128Z,98998.25
2018-04-24T14:29:17.675Z,99000.60
2018-04-24T14:31:51.164Z,98999.50
2018-04-24T14:34:24.880Z,98994.09
2018-04-24T14:36:58.543Z,98994.55
2018-04-24T14:39:32.080Z,98986.77
2018-04-24T14:42:05.559Z,98983.48
2018-04-24T14:44:39.204Z,98992.13
2018-04-24T14:47:12.949Z,98983.92
2018-04-24T14:49:46.488Z,98978.44
2018-04-24T14:52:20.148Z,98968.94
2018-04-24T14:54:53.684Z,98972.63
2018-04-24T14:57:27.332Z,98964.34
2018-04-24T15:00:00.902Z,98954.06
2018-04-24T15:02:34.433Z,98961.06
2018-04-24T15:05:07.978Z,98953.83
2018-04-24T15:07:41.540Z,98955.14
2018-04-24T15:10:15.228Z,98949.50
2018-04-24T15:12:48.984Z,98946.63
2018-04-24T15:15:22.671Z,98944.67
2018-04-24T15:17:56.444Z,98953.48
2018-04-24T15:20:30.176Z,98947.25
2018-04-24T15:23:03.784Z,98936.41
2018-04-24T15:25:37.514Z,98931.19
2018-04-24T15:28:11.289Z,98927.95
2018-04-24T15:30:44.996Z,98921.16
2018-04-24T15:33:18.575Z,98916.58
2018-04-24T15:35:52.247Z,98910.55
2018-04-24T15:38:25.884Z,98910.56
2018-04-24T15:40:59.448Z,98899.44
2018-04-24T15:43:33.008Z,98900.80
2018-04-24T15:46:06.924Z,98899.31
2018-04-24T15:48:40.943Z,98892.22
2018-04-24T15:51:14.708Z,98898.69
2018-04-24T15:53:48.475Z,98889.50
2018-04-24T15:56:22.156Z,98895.66
2018-04-24T15:58:55.924Z,98896.37
2018-04-24T16:01:29.487Z,98881.22
2018-04-24T16:04:03.100Z,98879.45
2018-04-24T16:06:36.868Z,98881.69
2018-04-24T16:09:10.400Z,98883.94
2018-04-24T16:11:44.201Z,98885.60
2018-04-24T16:14:17.807Z,98873.05
2018-04-24T16:16:51.609Z,98878.97
2018-04-24T16:19:25.182Z,98891.44
2018-04-24T16:21:58.928Z,98877.33
2018-04-24T16:24:32.664Z,98887.83
2018-04-24T16:27:13.112Z,98892.90
2018-04-24T16:29:46.791Z,98892.45
2018-04-24T16:32:20.235Z,98887.11
2018-04-24T16:34:53.973Z,98887.26
2018-04-24T16:37:27.640Z,98885.33
2018-04-24T16:40:01.496Z,98877.26
2018-04-24T16:42:35.137Z,98874.92
2018-04-24T16:45:08.829Z,98869.66
2018-04-24T16:47:42.552Z,98868.44
2018-04-24T16:50:16.095Z,98866.52
2018-04-24T16:52:49.767Z,98858.80
2018-04-24T16:55:23.438Z,98855.77
2018-04-24T16:57:56.981Z,98857.77
2018-04-24T17:00:30.677Z,98844.94
2018-04-24T17:03:04.317Z,98837.46
2018-04-24T17:05:37.876Z,98837.69
2018-04-24T17:08:11.644Z,98830.06
2018-04-24T17:10:45.176Z,98823.97
2018-04-24T17:13:18.770Z,98822.81
2018-04-24T17:15:52.331Z,98823.89
2018-04-24T17:18:25.872Z,98823.88
2018-04-24T17:20:59.481Z,98824.43
2018-04-24T17:23:33.181Z,98823.82
2018-04-24T17:26:06.936Z,98821.84
2018-04-24T17:28:40.737Z,98814.41
2018-04-24T17:31:14.517Z,98815.69
2018-04-24T17:33:48.080Z,98819.92
2018-04-24T17:36:21.916Z,98820.27
2018-04-24T17:38:55.768Z,98817.25
2018-04-24T17:41:29.312Z,98818.39
2018-04-24T17:44:03.017Z,98814.08
2018-04-24T17:46:36.868Z,98815.16
2018-04-24T17:49:10.610Z,98808.27
2018-04-24T17:51:44.163Z,98802.30
2018-04-24T17:54:17.944Z,98788.77
2018-04-24T17:56:51.703Z,98781.84
2018-04-24T17:59:25.257Z,98785.00
2018-04-24T18:01:58.871Z,98785.77
2018-04-24T18:04:32.567Z,98796.63
2018-04-24T18:07:06.175Z,98791.51
2018-04-24T18:09:39.760Z,98792.92
2018-04-24T18:12:13.373Z,98794.45
2018-04-24T18:14:46.968Z,98791.09
2018-04-24T18:17:20.573Z,98791.27
2018-04-24T18:19:54.343Z,98787.84
2018-04-24T18:22:28.090Z,98787.50
2018-04-24T18:25:01.628Z,98789.44
2018-04-24T18:27:35.184Z,98787.46
2018-04-24T18:30:08.832Z,98780.66
2018-04-24T18:32:42.493Z,98778.23
2018-04-24T18:35:16.060Z,98782.27
2018-04-24T18:37:49.735Z,98771.42
2018-04-24T18:40:23.275Z,98770.73
2018-04-24T18:42:56.839Z,98775.69
2018-04-24T18:45:30.431Z,98781.69
2018-04-24T18:48:04.184Z,98783.11
2018-04-24T18:50:37.805Z,98775.20
2018-04-24T18:53:11.612Z,98779.36
2018-04-24T18:55:45.347Z,98778.81
2018-04-24T18:58:18.907Z,98778.61
2018-04-24T19:00:52.440Z,98772.94
2018-04-24T19:03:26.106Z,98775.11
2018-04-24T19:05:59.719Z,98770.14
2018-04-24T19:08:33.355Z,98769.97
2018-04-24T19:11:06.912Z,98764.17
2018-04-24T19:13:40.624Z,98766.27
2018-04-24T19:16:14.487Z,98771.00
2018-04-24T19:21:50.139Z,98767.81
2018-04-24T19:24:29.714Z,98764.33
2018-04-24T19:27:03.400Z,98759.20
2018-04-24T19:29:37.260Z,98761.13
2018-04-24T19:32:16.643Z,98760.05
2018-04-24T19:34:50.248Z,98758.52
2018-04-24T19:37:24.077Z,98754.77
2018-04-24T19:40:03.489Z,98753.80
2018-04-24T19:42:37.267Z,98752.03
2018-04-24T19:45:10.799Z,98756.20
2018-04-24T19:47:44.391Z,98754.38
2018-04-24T19:50:20.175Z,98752.49
2018-04-24T19:52:54.056Z,98753.41
2018-04-24T19:55:27.840Z,98744.59
2018-04-24T19:58:01.409Z,98745.94
2018-04-24T20:00:34.936Z,98743.77
2018-04-24T20:03:08.480Z,98737.70
2018-04-24T20:05:42.148Z,98737.63
2018-04-24T20:08:15.857Z,98740.92
2018-04-24T20:10:49.563Z,98735.00
2018-04-24T20:13:23.208Z,98735.97
2018-04-24T20:15:56.799Z,98734.61
2018-04-24T20:18:30.492Z,98732.10
2018-04-24T20:21:04.176Z,98724.19
2018-04-24T20:23:37.748Z,98725.20
2018-04-24T20:26:11.307Z,98718.66
2018-04-24T20:28:44.895Z,98719.37
2018-04-24T20:31:18.580Z,98717.75
2018-04-24T20:33:52.100Z,98713.08
2018-04-24T20:36:25.672Z,98707.16
2018-04-24T20:38:59.360Z,98716.22
2018-04-24T20:41:33.045Z,98710.00
2018-04-24T20:44:06.639Z,98717.41
2018-04-24T20:46:40.136Z,98707.21
2018-04-24T20:49:13.631Z,98698.69
2018-04-24T20:51:47.245Z,98688.88
2018-04-24T20:54:20.790Z,98682.28
2018-04-24T20:56:54.471Z,98681.23
2018-04-24T20:59:28.071Z,98682.10
2018-04-24T21:02:01.804Z,98674.06
2018-04-24T21:04:35.343Z,98669.28
2018-04-24T21:07:08.835Z,98660.73
2018-04-24T21:09:42.373Z,98650.38
2018-04-24T21:12:15.903Z,98652.30
2018-04-24T21:14:49.548Z,98642.97
2018-04-24T21:17:23.164Z,98643.95
2018-04-24T21:19:56.751Z,98637.69
2018-04-24T21:22:30.368Z,98629.84
2018-04-24T21:25:04.108Z,98627.12
2018-04-24T21:27:37.880Z,98629.44
2018-04-24T21:30:11.647Z,98626.75
2018-04-24T21:32:45.261Z,98619.34
2018-04-24T21:35:19.062Z,98618.70
2018-04-24T21:37:52.860Z,98623.03
2018-04-24T21:40:26.520Z,98622.56
2018-04-24T21:43:00.064Z,98610.55
2018-04-24T21:45:33.904Z,98609.47
2018-04-24T21:48:07.433Z,98602.98
2018-04-24T21:50:40.984Z,98600.06
2018-04-24T21:53:14.635Z,98598.52
2018-04-24T21:55:48.183Z,98587.75
2018-04-24T21:58:21.916Z,98585.77
2018-04-24T22:00:55.511Z,98582.48
2018-04-24T22:03:29.395Z,98570.88
2018-04-24T22:06:03.168Z,98564.99
2018-04-24T22:08:36.853Z,98569.09
2018-04-24T22:11:10.539Z,98568.70
2018-04-24T22:13:44.411Z,98563.58
2018-04-24T22:16:18.007Z,98557.75
2018-04-24T22:18:51.821Z,98546.35
2018-04-24T22:21:25.331Z,98545.95
2018-04-24T22:23:59.011Z,98543.98
2018-04-24T22:26:32.756Z,98550.84
2018-04-24T22:29:06.385Z,98539.29
2018-04-24T22:31:39.989Z,98538.27
2018-04-24T22:34:13.540Z,98532.36
2018-04-24T22:36:47.292Z,98524.73
2018-04-24T22:39:20.867Z,98523.58
2018-04-24T22:41:54.473Z,98517.39
2018-04-24T22:44:28.197Z,98518.37
2018-04-24T22:47:01.820Z,98513.78
2018-04-24T22:49:35.404Z,98516.60
2018-04-24T22:52:09.264Z,98512.73
2018-04-24T22:54:43.171Z,98510.74
2018-04-24T22:57:16.683Z,98514.17
2018-04-24T22:59:50.259Z,98500.61
2018-04-24T23:02:23.833Z,98497.70
2018-04-24T23:04:57.340Z,98495.80
2018-04-24T23:07:31.160Z,98494.95
2018-04-24T23:10:04.157Z,98487.14
2018-04-24T23:12:49.652Z,98485.38
2018-04-24T23:15:35.149Z,98472.58
2018-04-24T23:18:20.808Z,98476.90
2018-04-24T23:20:53.976Z,98476.59
2018-04-24T23:23:27.572Z,98479.81
2018-04-24T23:26:01.086Z,98476.59
2018-04-24T23:28:34.775Z,98478.53
2018-04-24T23:31:08.416Z,98478.36
2018-04-24T23:33:42.234Z,98477.17
2018-04-24T23:36:15.919Z,98474.73
2018-04-24T23:38:49.756Z,98464.23
2018-04-24T23:41:23.501Z,98466.84
2018-04-24T23:43:57.268Z,98454.78
2018-04-24T23:46:30.864Z,98456.20
2018-04-24T23:49:04.671Z,98453.03
2018-04-24T23:51:38.312Z,98445.02
2018-04-24T23:54:11.867Z,98426.59
2018-04-24T23:56:45.460Z,98414.56
2018-04-24T23:59:19.220Z,98404.59
